sensor_id;sensor_type;location;lat;lon;timestamp;temperature;humidity
4615;DHT22;2320;51.362;6.946;2023-06-22T00:01:51;20.20;99.90
4615;DHT22;2320;51.362;6.946;2023-06-22T00:04:16;20.10;99.90
4615;DHT22;2320;51.362;6.946;2023-06-22T00:06:42;20.10;99.90
4615;DHT22;2320;51.362;6.946;2023-06-22T00:09:07;20.20;99.90
4615;DHT22;2320;51.362;6.946;2023-06-22T00:11:33;20.30;99.90
4615;DHT22;2320;51.362;6.946;2023-06-22T00:13:59;20.30;99.90
4615;DHT22;2320;51.362;6.946;2023-06-22T00:16:24;20.40;99.90
4615;DHT22;2320;51.362;6.946;2023-06-22T00:18:50;20.50;99.90
4615;DHT22;2320;51.362;6.946;2023-06-22T00:21:15;20.50;99.90
4615;DHT22;2320;51.362;6.946;2023-06-22T00:23:41;20.60;99.90
4615;DHT22;2320;51.362;6.946;2023-06-22T00:26:07;20.70;99.90
4615;DHT22;2320;51.362;6.946;2023-06-22T00:28:33;20.70;99.90
4615;DHT22;2320;51.362;6.946;2023-06-22T00:30:58;20.80;99.90
4615;DHT22;2320;51.362;6.946;2023-06-22T00:33:26;20.70;99.90
4615;DHT22;2320;51.362;6.946;2023-06-22T00:35:51;20.70;99.90
4615;DHT22;2320;51.362;6.946;2023-06-22T00:38:18;20.80;99.90
4615;DHT22;2320;51.362;6.946;2023-06-22T00:40:43;20.80;99.90
4615;DHT22;2320;51.362;6.946;2023-06-22T00:43:09;20.80;99.90
4615;DHT22;2320;51.362;6.946;2023-06-22T00:45:34;20.70;99.90
4615;DHT22;2320;51.362;6.946;2023-06-22T00:48:00;20.80;99.90
4615;DHT22;2320;51.362;6.946;2023-06-22T00:50:27;20.80;99.90
4615;DHT22;2320;51.362;6.946;2023-06-22T00:52:57;20.80;99.90
4615;DHT22;2320;51.362;6.946;2023-06-22T00:55:24;20.90;99.90
4615;DHT22;2320;51.362;6.946;2023-06-22T00:57:51;21.00;99.90
4615;DHT22;2320;51.362;6.946;2023-06-22T01:00:21;21.00;99.90
4615;DHT22;2320;51.362;6.946;2023-06-22T01:02:50;20.90;99.90
4615;DHT22;2320;51.362;6.946;2023-06-22T01:05:17;20.90;99.90
4615;DHT22;2320;51.362;6.946;2023-06-22T01:10:16;20.90;99.90
4615;DHT22;2320;51.362;6.946;2023-06-22T01:12:48;20.90;99.90
4615;DHT22;2320;51.362;6.946;2023-06-22T01:15:21;20.80;99.90
4615;DHT22;2320;51.362;6.946;2023-06-22T01:17:48;20.80;99.90
4615;DHT22;2320;51.362;6.946;2023-06-22T01:20:15;20.80;99.90
4615;DHT22;2320;51.362;6.946;2023-06-22T01:23:07;20.90;99.90
4615;DHT22;2320;51.362;6.946;2023-06-22T01:28:29;21.00;99.90
4615;DHT22;2320;51.362;6.946;2023-06-22T01:30:57;21.00;99.90
4615;DHT22;2320;51.362;6.946;2023-06-22T01:33:34;21.10;99.90
4615;DHT22;2320;51.362;6.946;2023-06-22T01:36:00;21.10;99.90
4615;DHT22;2320;51.362;6.946;2023-06-22T01:38:26;21.20;99.90
4615;DHT22;2320;51.362;6.946;2023-06-22T01:40:52;21.30;99.90
4615;DHT22;2320;51.362;6.946;2023-06-22T01:43:17;21.30;99.90
4615;DHT22;2320;51.362;6.946;2023-06-22T01:45:43;21.10;99.90
4615;DHT22;2320;51.362;6.946;2023-06-22T01:48:08;20.90;99.90
4615;DHT22;2320;51.362;6.946;2023-06-22T01:50:34;21.10;99.90
4615;DHT22;2320;51.362;6.946;2023-06-22T01:53:00;20.90;99.90
4615;DHT22;2320;51.362;6.946;2023-06-22T01:55:25;20.80;99.90
4615;DHT22;2320;51.362;6.946;2023-06-22T01:57:51;20.80;99.90
4615;DHT22;2320;51.362;6.946;2023-06-22T02:00:20;20.80;99.90
4615;DHT22;2320;51.362;6.946;2023-06-22T02:05:50;20.80;99.90
4615;DHT22;2320;51.362;6.946;2023-06-22T02:08:19;20.80;99.90
4615;DHT22;2320;51.362;6.946;2023-06-22T02:10:46;20.90;99.90
4615;DHT22;2320;51.362;6.946;2023-06-22T02:13:12;20.80;99.90
4615;DHT22;2320;51.362;6.946;2023-06-22T02:15:38;20.80;99.90
4615;DHT22;2320;51.362;6.946;2023-06-22T02:18:04;20.50;99.90
4615;DHT22;2320;51.362;6.946;2023-06-22T02:20:30;20.60;99.90
4615;DHT22;2320;51.362;6.946;2023-06-22T02:22:55;20.50;99.90
4615;DHT22;2320;51.362;6.946;2023-06-22T02:25:21;20.40;99.90
4615;DHT22;2320;51.362;6.946;2023-06-22T02:27:47;20.40;99.90
4615;DHT22;2320;51.362;6.946;2023-06-22T02:30:12;20.40;99.90
4615;DHT22;2320;51.362;6.946;2023-06-22T02:32:40;20.40;99.90
4615;DHT22;2320;51.362;6.946;2023-06-22T02:35:11;20.60;99.90
4615;DHT22;2320;51.362;6.946;2023-06-22T02:37:37;20.60;99.90
4615;DHT22;2320;51.362;6.946;2023-06-22T02:40:10;20.50;99.90
4615;DHT22;2320;51.362;6.946;2023-06-22T02:42:36;20.40;99.90
4615;DHT22;2320;51.362;6.946;2023-06-22T02:45:01;20.30;99.90
4615;DHT22;2320;51.362;6.946;2023-06-22T02:47:27;20.30;99.90
4615;DHT22;2320;51.362;6.946;2023-06-22T02:49:52;20.30;99.90
4615;DHT22;2320;51.362;6.946;2023-06-22T02:52:18;20.30;99.90
4615;DHT22;2320;51.362;6.946;2023-06-22T02:54:43;20.30;99.90
4615;DHT22;2320;51.362;6.946;2023-06-22T02:57:11;20.50;99.90
4615;DHT22;2320;51.362;6.946;2023-06-22T02:59:39;20.40;99.90
4615;DHT22;2320;51.362;6.946;2023-06-22T03:02:06;20.50;99.90
4615;DHT22;2320;51.362;6.946;2023-06-22T03:04:31;20.40;99.90
4615;DHT22;2320;51.362;6.946;2023-06-22T03:06:57;20.30;99.90
4615;DHT22;2320;51.362;6.946;2023-06-22T03:09:26;20.30;99.90
4615;DHT22;2320;51.362;6.946;2023-06-22T03:11:53;20.20;99.90
4615;DHT22;2320;51.362;6.946;2023-06-22T03:14:18;20.20;99.90
4615;DHT22;2320;51.362;6.946;2023-06-22T03:16:44;20.20;99.90
4615;DHT22;2320;51.362;6.946;2023-06-22T03:19:09;20.20;99.90
4615;DHT22;2320;51.362;6.946;2023-06-22T03:21:36;20.20;99.90
4615;DHT22;2320;51.362;6.946;2023-06-22T03:24:04;20.10;99.90
4615;DHT22;2320;51.362;6.946;2023-06-22T03:26:29;20.00;99.90
4615;DHT22;2320;51.362;6.946;2023-06-22T03:28:55;20.00;99.90
4615;DHT22;2320;51.362;6.946;2023-06-22T03:31:21;20.00;99.90
4615;DHT22;2320;51.362;6.946;2023-06-22T03:33:47;20.10;99.90
4615;DHT22;2320;51.362;6.946;2023-06-22T03:36:14;20.20;99.90
4615;DHT22;2320;51.362;6.946;2023-06-22T03:38:44;20.10;99.90
4615;DHT22;2320;51.362;6.946;2023-06-22T03:41:10;20.00;99.90
4615;DHT22;2320;51.362;6.946;2023-06-22T03:43:35;20.10;99.90
4615;DHT22;2320;51.362;6.946;2023-06-22T03:46:01;20.00;99.90
4615;DHT22;2320;51.362;6.946;2023-06-22T03:48:26;20.00;99.90
4615;DHT22;2320;51.362;6.946;2023-06-22T03:50:52;20.10;99.90
4615;DHT22;2320;51.362;6.946;2023-06-22T03:53:17;20.20;99.90
4615;DHT22;2320;51.362;6.946;2023-06-22T03:55:53;20.20;99.90
4615;DHT22;2320;51.362;6.946;2023-06-22T03:58:19;20.30;99.90
4615;DHT22;2320;51.362;6.946;2023-06-22T04:00:47;20.20;99.90
4615;DHT22;2320;51.362;6.946;2023-06-22T04:03:14;20.00;99.90
4615;DHT22;2320;51.362;6.946;2023-06-22T04:05:39;20.10;99.90
4615;DHT22;2320;51.362;6.946;2023-06-22T04:08:05;20.40;99.90
4615;DHT22;2320;51.362;6.946;2023-06-22T04:10:30;20.40;99.90
4615;DHT22;2320;51.362;6.946;2023-06-22T04:12:56;20.50;99.90
4615;DHT22;2320;51.362;6.946;2023-06-22T04:15:21;20.50;99.90
4615;DHT22;2320;51.362;6.946;2023-06-22T04:17:47;20.40;99.90
4615;DHT22;2320;51.362;6.946;2023-06-22T04:20:13;20.60;99.90
4615;DHT22;2320;51.362;6.946;2023-06-22T04:22:38;20.50;99.90
4615;DHT22;2320;51.362;6.946;2023-06-22T04:25:05;20.40;99.90
4615;DHT22;2320;51.362;6.946;2023-06-22T04:27:31;20.50;99.90
4615;DHT22;2320;51.362;6.946;2023-06-22T04:29:57;20.70;99.90
4615;DHT22;2320;51.362;6.946;2023-06-22T04:32:25;20.80;99.90
4615;DHT22;2320;51.362;6.946;2023-06-22T04:34:50;20.60;99.90
4615;DHT22;2320;51.362;6.946;2023-06-22T04:37:17;20.50;99.90
4615;DHT22;2320;51.362;6.946;2023-06-22T04:39:43;20.60;99.90
4615;DHT22;2320;51.362;6.946;2023-06-22T04:42:08;20.60;99.90
4615;DHT22;2320;51.362;6.946;2023-06-22T04:44:34;20.70;99.90
4615;DHT22;2320;51.362;6.946;2023-06-22T04:47:00;20.60;99.90
4615;DHT22;2320;51.362;6.946;2023-06-22T04:49:28;20.70;99.90
4615;DHT22;2320;51.362;6.946;2023-06-22T04:51:58;20.80;99.90
4615;DHT22;2320;51.362;6.946;2023-06-22T04:54:24;20.70;99.90
4615;DHT22;2320;51.362;6.946;2023-06-22T04:56:49;20.80;99.90
4615;DHT22;2320;51.362;6.946;2023-06-22T04:59:30;20.80;99.90
4615;DHT22;2320;51.362;6.946;2023-06-22T05:01:56;20.70;99.90
4615;DHT22;2320;51.362;6.946;2023-06-22T05:04:22;20.80;99.90
4615;DHT22;2320;51.362;6.946;2023-06-22T05:06:51;20.60;99.90
4615;DHT22;2320;51.362;6.946;2023-06-22T05:09:17;20.40;99.90
4615;DHT22;2320;51.362;6.946;2023-06-22T05:11:43;20.60;99.90
4615;DHT22;2320;51.362;6.946;2023-06-22T05:14:08;20.80;99.90
4615;DHT22;2320;51.362;6.946;2023-06-22T05:16:34;20.60;99.90
4615;DHT22;2320;51.362;6.946;2023-06-22T05:18:59;20.40;99.90
4615;DHT22;2320;51.362;6.946;2023-06-22T05:21:26;20.60;99.90
4615;DHT22;2320;51.362;6.946;2023-06-22T05:23:55;20.50;99.90
4615;DHT22;2320;51.362;6.946;2023-06-22T05:26:25;20.40;99.90
4615;DHT22;2320;51.362;6.946;2023-06-22T05:28:51;20.60;99.90
4615;DHT22;2320;51.362;6.946;2023-06-22T05:31:16;20.70;99.90
4615;DHT22;2320;51.362;6.946;2023-06-22T05:33:42;20.60;99.90
4615;DHT22;2320;51.362;6.946;2023-06-22T05:36:08;20.70;99.90
4615;DHT22;2320;51.362;6.946;2023-06-22T05:38:34;20.80;99.90
4615;DHT22;2320;51.362;6.946;2023-06-22T05:40:59;20.60;99.90
4615;DHT22;2320;51.362;6.946;2023-06-22T05:43:25;20.50;99.90
4615;DHT22;2320;51.362;6.946;2023-06-22T05:45:50;20.30;99.90
4615;DHT22;2320;51.362;6.946;2023-06-22T05:48:16;20.30;99.90
4615;DHT22;2320;51.362;6.946;2023-06-22T05:50:42;20.20;99.90
4615;DHT22;2320;51.362;6.946;2023-06-22T05:53:07;20.10;99.90
4615;DHT22;2320;51.362;6.946;2023-06-22T05:55:33;20.20;99.90
4615;DHT22;2320;51.362;6.946;2023-06-22T05:57:58;20.40;99.90
4615;DHT22;2320;51.362;6.946;2023-06-22T06:00:24;20.40;99.90
4615;DHT22;2320;51.362;6.946;2023-06-22T06:02:49;20.30;99.90
4615;DHT22;2320;51.362;6.946;2023-06-22T06:05:15;20.40;99.90
4615;DHT22;2320;51.362;6.946;2023-06-22T06:07:41;20.30;99.90
4615;DHT22;2320;51.362;6.946;2023-06-22T06:10:07;20.50;99.90
4615;DHT22;2320;51.362;6.946;2023-06-22T06:12:33;20.60;99.90
4615;DHT22;2320;51.362;6.946;2023-06-22T06:14:58;20.50;99.90
4615;DHT22;2320;51.362;6.946;2023-06-22T06:17:24;20.30;99.90
4615;DHT22;2320;51.362;6.946;2023-06-22T06:19:49;20.40;99.90
4615;DHT22;2320;51.362;6.946;2023-06-22T06:22:15;20.50;99.90
4615;DHT22;2320;51.362;6.946;2023-06-22T06:24:40;20.90;99.90
4615;DHT22;2320;51.362;6.946;2023-06-22T06:27:05;20.90;99.90
4615;DHT22;2320;51.362;6.946;2023-06-22T06:29:31;20.90;99.90
4615;DHT22;2320;51.362;6.946;2023-06-22T06:31:57;20.90;99.90
4615;DHT22;2320;51.362;6.946;2023-06-22T06:34:22;21.20;99.90
4615;DHT22;2320;51.362;6.946;2023-06-22T06:36:48;21.50;99.90
4615;DHT22;2320;51.362;6.946;2023-06-22T06:39:13;21.60;99.90
4615;DHT22;2320;51.362;6.946;2023-06-22T06:41:39;21.80;99.90
4615;DHT22;2320;51.362;6.946;2023-06-22T06:44:04;21.30;99.90
4615;DHT22;2320;51.362;6.946;2023-06-22T06:46:29;21.40;99.90
4615;DHT22;2320;51.362;6.946;2023-06-22T06:48:55;21.30;99.90
4615;DHT22;2320;51.362;6.946;2023-06-22T06:51:21;21.40;99.90
4615;DHT22;2320;51.362;6.946;2023-06-22T06:53:46;21.20;99.90
4615;DHT22;2320;51.362;6.946;2023-06-22T06:56:11;21.30;99.90
4615;DHT22;2320;51.362;6.946;2023-06-22T06:58:40;21.30;99.90
4615;DHT22;2320;51.362;6.946;2023-06-22T07:01:05;21.40;99.90
4615;DHT22;2320;51.362;6.946;2023-06-22T07:03:31;21.50;99.90
4615;DHT22;2320;51.362;6.946;2023-06-22T07:05:58;21.60;99.90
4615;DHT22;2320;51.362;6.946;2023-06-22T07:08:24;21.60;99.90
4615;DHT22;2320;51.362;6.946;2023-06-22T07:10:49;21.60;99.90
4615;DHT22;2320;51.362;6.946;2023-06-22T07:13:15;21.00;99.90
4615;DHT22;2320;51.362;6.946;2023-06-22T07:15:40;20.60;99.90
4615;DHT22;2320;51.362;6.946;2023-06-22T07:18:06;20.50;99.90
4615;DHT22;2320;51.362;6.946;2023-06-22T07:20:31;20.20;99.90
4615;DHT22;2320;51.362;6.946;2023-06-22T07:22:57;20.00;99.90
4615;DHT22;2320;51.362;6.946;2023-06-22T07:25:23;19.90;99.90
4615;DHT22;2320;51.362;6.946;2023-06-22T07:27:59;19.80;99.90
4615;DHT22;2320;51.362;6.946;2023-06-22T07:30:25;19.80;99.90
4615;DHT22;2320;51.362;6.946;2023-06-22T07:32:50;19.60;99.90
4615;DHT22;2320;51.362;6.946;2023-06-22T07:35:16;19.60;99.90
4615;DHT22;2320;51.362;6.946;2023-06-22T07:37:44;19.60;99.90
4615;DHT22;2320;51.362;6.946;2023-06-22T07:40:10;19.70;99.90
4615;DHT22;2320;51.362;6.946;2023-06-22T07:42:35;19.60;99.90
4615;DHT22;2320;51.362;6.946;2023-06-22T07:45:02;19.70;99.90
4615;DHT22;2320;51.362;6.946;2023-06-22T07:47:28;19.80;99.90
4615;DHT22;2320;51.362;6.946;2023-06-22T07:49:54;19.70;99.90
4615;DHT22;2320;51.362;6.946;2023-06-22T07:52:20;19.60;99.90
4615;DHT22;2320;51.362;6.946;2023-06-22T07:54:46;19.60;99.90
4615;DHT22;2320;51.362;6.946;2023-06-22T07:57:11;19.50;99.90
4615;DHT22;2320;51.362;6.946;2023-06-22T07:59:37;19.40;99.90
4615;DHT22;2320;51.362;6.946;2023-06-22T08:02:03;19.50;99.90
4615;DHT22;2320;51.362;6.946;2023-06-22T08:04:29;19.40;99.90
4615;DHT22;2320;51.362;6.946;2023-06-22T08:06:56;19.50;99.90
4615;DHT22;2320;51.362;6.946;2023-06-22T08:09:21;19.60;99.90
4615;DHT22;2320;51.362;6.946;2023-06-22T08:11:47;19.70;99.90
4615;DHT22;2320;51.362;6.946;2023-06-22T08:14:13;19.70;99.90
4615;DHT22;2320;51.362;6.946;2023-06-22T08:16:39;19.90;99.90
4615;DHT22;2320;51.362;6.946;2023-06-22T08:19:05;19.90;99.90
4615;DHT22;2320;51.362;6.946;2023-06-22T08:21:31;20.00;99.90
4615;DHT22;2320;51.362;6.946;2023-06-22T08:23:56;20.10;99.90
4615;DHT22;2320;51.362;6.946;2023-06-22T08:26:22;20.20;99.90
4615;DHT22;2320;51.362;6.946;2023-06-22T08:28:48;20.30;99.90
4615;DHT22;2320;51.362;6.946;2023-06-22T08:31:14;20.40;99.90
4615;DHT22;2320;51.362;6.946;2023-06-22T08:33:39;20.60;99.90
4615;DHT22;2320;51.362;6.946;2023-06-22T08:36:05;20.70;99.90
4615;DHT22;2320;51.362;6.946;2023-06-22T08:38:31;21.20;99.90
4615;DHT22;2320;51.362;6.946;2023-06-22T08:40:57;21.40;99.90
4615;DHT22;2320;51.362;6.946;2023-06-22T08:43:22;21.60;99.90
4615;DHT22;2320;51.362;6.946;2023-06-22T08:45:48;21.60;99.90
4615;DHT22;2320;51.362;6.946;2023-06-22T08:48:13;21.90;99.90
4615;DHT22;2320;51.362;6.946;2023-06-22T08:50:39;22.50;99.90
4615;DHT22;2320;51.362;6.946;2023-06-22T08:53:05;23.20;99.90
4615;DHT22;2320;51.362;6.946;2023-06-22T08:55:33;23.80;99.90
4615;DHT22;2320;51.362;6.946;2023-06-22T08:57:58;24.40;99.90
4615;DHT22;2320;51.362;6.946;2023-06-22T09:00:24;24.50;99.90
4615;DHT22;2320;51.362;6.946;2023-06-22T09:02:49;24.50;99.90
4615;DHT22;2320;51.362;6.946;2023-06-22T09:05:15;25.20;99.90
4615;DHT22;2320;51.362;6.946;2023-06-22T09:07:41;25.70;99.90
4615;DHT22;2320;51.362;6.946;2023-06-22T09:10:07;26.30;99.90
4615;DHT22;2320;51.362;6.946;2023-06-22T09:12:33;27.30;99.90
4615;DHT22;2320;51.362;6.946;2023-06-22T09:14:59;27.60;99.90
4615;DHT22;2320;51.362;6.946;2023-06-22T09:17:25;27.90;99.90
4615;DHT22;2320;51.362;6.946;2023-06-22T09:19:51;29.20;99.90
4615;DHT22;2320;51.362;6.946;2023-06-22T09:22:16;29.70;99.90
4615;DHT22;2320;51.362;6.946;2023-06-22T09:24:42;29.20;99.90
4615;DHT22;2320;51.362;6.946;2023-06-22T09:27:07;29.30;99.90
4615;DHT22;2320;51.362;6.946;2023-06-22T09:29:33;28.90;99.90
4615;DHT22;2320;51.362;6.946;2023-06-22T09:31:59;28.10;99.90
4615;DHT22;2320;51.362;6.946;2023-06-22T09:34:25;27.60;99.90
4615;DHT22;2320;51.362;6.946;2023-06-22T09:36:50;27.90;99.90
4615;DHT22;2320;51.362;6.946;2023-06-22T09:39:17;27.60;99.90
4615;DHT22;2320;51.362;6.946;2023-06-22T09:41:43;27.60;99.90
4615;DHT22;2320;51.362;6.946;2023-06-22T09:44:08;27.40;99.90
4615;DHT22;2320;51.362;6.946;2023-06-22T09:46:34;27.00;99.90
4615;DHT22;2320;51.362;6.946;2023-06-22T09:48:59;27.10;99.90
4615;DHT22;2320;51.362;6.946;2023-06-22T09:51:25;27.50;99.90
4615;DHT22;2320;51.362;6.946;2023-06-22T09:53:50;27.80;99.90
4615;DHT22;2320;51.362;6.946;2023-06-22T09:56:16;27.90;99.90
4615;DHT22;2320;51.362;6.946;2023-06-22T09:58:42;27.10;99.90
4615;DHT22;2320;51.362;6.946;2023-06-22T10:01:08;27.30;99.90
4615;DHT22;2320;51.362;6.946;2023-06-22T10:03:33;27.40;99.90
4615;DHT22;2320;51.362;6.946;2023-06-22T10:05:58;27.30;99.90
4615;DHT22;2320;51.362;6.946;2023-06-22T10:08:24;27.40;99.90
4615;DHT22;2320;51.362;6.946;2023-06-22T10:10:49;27.80;99.90
4615;DHT22;2320;51.362;6.946;2023-06-22T10:13:15;27.50;99.90
4615;DHT22;2320;51.362;6.946;2023-06-22T10:15:41;27.90;99.90
4615;DHT22;2320;51.362;6.946;2023-06-22T10:18:06;28.00;99.90
4615;DHT22;2320;51.362;6.946;2023-06-22T10:20:32;28.00;99.90
4615;DHT22;2320;51.362;6.946;2023-06-22T10:22:57;28.30;99.90
4615;DHT22;2320;51.362;6.946;2023-06-22T10:25:23;28.40;99.90
4615;DHT22;2320;51.362;6.946;2023-06-22T10:27:49;28.00;99.90
4615;DHT22;2320;51.362;6.946;2023-06-22T10:30:14;27.80;99.90
4615;DHT22;2320;51.362;6.946;2023-06-22T10:32:40;27.80;99.90
4615;DHT22;2320;51.362;6.946;2023-06-22T10:35:06;27.00;99.90
4615;DHT22;2320;51.362;6.946;2023-06-22T10:37:32;27.00;99.90
4615;DHT22;2320;51.362;6.946;2023-06-22T10:39:57;27.40;99.90
4615;DHT22;2320;51.362;6.946;2023-06-22T10:42:23;27.80;99.90
4615;DHT22;2320;51.362;6.946;2023-06-22T10:44:48;27.30;99.90
4615;DHT22;2320;51.362;6.946;2023-06-22T10:47:14;27.10;99.90
4615;DHT22;2320;51.362;6.946;2023-06-22T10:49:39;27.20;99.90
4615;DHT22;2320;51.362;6.946;2023-06-22T10:52:06;26.70;99.90
4615;DHT22;2320;51.362;6.946;2023-06-22T10:54:32;26.40;99.90
4615;DHT22;2320;51.362;6.946;2023-06-22T10:56:59;26.70;99.90
4615;DHT22;2320;51.362;6.946;2023-06-22T10:59:24;26.30;99.90
4615;DHT22;2320;51.362;6.946;2023-06-22T11:01:51;26.20;99.90
4615;DHT22;2320;51.362;6.946;2023-06-22T11:04:16;25.90;99.90
4615;DHT22;2320;51.362;6.946;2023-06-22T11:06:43;25.80;99.90
4615;DHT22;2320;51.362;6.946;2023-06-22T11:09:08;25.70;99.90
4615;DHT22;2320;51.362;6.946;2023-06-22T11:11:34;25.40;99.90
4615;DHT22;2320;51.362;6.946;2023-06-22T11:13:59;25.00;99.90
4615;DHT22;2320;51.362;6.946;2023-06-22T11:16:25;24.70;99.90
4615;DHT22;2320;51.362;6.946;2023-06-22T11:18:50;24.50;99.90
4615;DHT22;2320;51.362;6.946;2023-06-22T11:21:15;24.10;99.90
4615;DHT22;2320;51.362;6.946;2023-06-22T11:23:41;23.90;99.90
4615;DHT22;2320;51.362;6.946;2023-06-22T11:26:07;23.80;99.90
4615;DHT22;2320;51.362;6.946;2023-06-22T11:28:32;23.70;99.90
4615;DHT22;2320;51.362;6.946;2023-06-22T11:30:58;23.70;99.90
4615;DHT22;2320;51.362;6.946;2023-06-22T11:33:24;23.70;99.90
4615;DHT22;2320;51.362;6.946;2023-06-22T11:35:49;23.70;99.90
4615;DHT22;2320;51.362;6.946;2023-06-22T11:38:15;23.80;99.90
4615;DHT22;2320;51.362;6.946;2023-06-22T11:40:40;23.90;99.90
4615;DHT22;2320;51.362;6.946;2023-06-22T11:43:06;23.90;99.90
4615;DHT22;2320;51.362;6.946;2023-06-22T11:45:31;23.70;99.90
4615;DHT22;2320;51.362;6.946;2023-06-22T11:47:56;23.70;99.90
4615;DHT22;2320;51.362;6.946;2023-06-22T11:50:22;23.70;99.90
4615;DHT22;2320;51.362;6.946;2023-06-22T11:52:47;23.50;99.90
4615;DHT22;2320;51.362;6.946;2023-06-22T11:55:13;22.90;99.90
4615;DHT22;2320;51.362;6.946;2023-06-22T11:57:39;22.70;99.90
4615;DHT22;2320;51.362;6.946;2023-06-22T12:00:16;22.70;99.90
4615;DHT22;2320;51.362;6.946;2023-06-22T12:02:43;22.60;99.90
4615;DHT22;2320;51.362;6.946;2023-06-22T12:05:10;22.70;99.90
4615;DHT22;2320;51.362;6.946;2023-06-22T12:07:36;22.80;99.90
4615;DHT22;2320;51.362;6.946;2023-06-22T12:10:01;22.60;99.90
4615;DHT22;2320;51.362;6.946;2023-06-22T12:12:27;22.60;99.90
4615;DHT22;2320;51.362;6.946;2023-06-22T12:14:52;22.50;99.90
4615;DHT22;2320;51.362;6.946;2023-06-22T12:17:18;22.30;99.90
4615;DHT22;2320;51.362;6.946;2023-06-22T12:19:43;22.20;99.90
4615;DHT22;2320;51.362;6.946;2023-06-22T12:22:09;22.30;99.90
4615;DHT22;2320;51.362;6.946;2023-06-22T12:24:34;22.20;99.90
4615;DHT22;2320;51.362;6.946;2023-06-22T12:27:00;22.40;99.90
4615;DHT22;2320;51.362;6.946;2023-06-22T12:29:25;22.50;99.90
4615;DHT22;2320;51.362;6.946;2023-06-22T12:31:51;22.60;99.90
4615;DHT22;2320;51.362;6.946;2023-06-22T12:34:16;22.50;99.90
4615;DHT22;2320;51.362;6.946;2023-06-22T12:36:41;22.40;99.90
4615;DHT22;2320;51.362;6.946;2023-06-22T12:39:07;22.40;99.90
4615;DHT22;2320;51.362;6.946;2023-06-22T12:41:33;22.40;99.90
4615;DHT22;2320;51.362;6.946;2023-06-22T12:43:58;22.40;99.90
4615;DHT22;2320;51.362;6.946;2023-06-22T12:46:24;22.50;99.90
4615;DHT22;2320;51.362;6.946;2023-06-22T12:48:49;22.60;99.90
4615;DHT22;2320;51.362;6.946;2023-06-22T12:51:21;22.60;99.90
4615;DHT22;2320;51.362;6.946;2023-06-22T12:53:47;22.60;99.90
4615;DHT22;2320;51.362;6.946;2023-06-22T12:56:13;22.60;99.90
4615;DHT22;2320;51.362;6.946;2023-06-22T12:58:38;22.70;99.90
4615;DHT22;2320;51.362;6.946;2023-06-22T13:01:03;22.80;99.90
4615;DHT22;2320;51.362;6.946;2023-06-22T13:03:29;23.00;99.90
4615;DHT22;2320;51.362;6.946;2023-06-22T13:05:54;23.30;99.90
4615;DHT22;2320;51.362;6.946;2023-06-22T13:08:20;23.40;99.90
4615;DHT22;2320;51.362;6.946;2023-06-22T13:10:45;23.40;99.90
4615;DHT22;2320;51.362;6.946;2023-06-22T13:13:11;23.50;99.90
4615;DHT22;2320;51.362;6.946;2023-06-22T13:15:36;23.30;99.90
4615;DHT22;2320;51.362;6.946;2023-06-22T13:18:02;23.30;99.90
4615;DHT22;2320;51.362;6.946;2023-06-22T13:20:28;23.10;99.90
4615;DHT22;2320;51.362;6.946;2023-06-22T13:22:54;23.00;99.90
4615;DHT22;2320;51.362;6.946;2023-06-22T13:25:20;22.90;99.90
4615;DHT22;2320;51.362;6.946;2023-06-22T13:27:49;22.90;99.90
4615;DHT22;2320;51.362;6.946;2023-06-22T13:30:14;23.00;99.90
4615;DHT22;2320;51.362;6.946;2023-06-22T13:32:40;23.10;99.90
4615;DHT22;2320;51.362;6.946;2023-06-22T13:35:07;23.20;99.90
4615;DHT22;2320;51.362;6.946;2023-06-22T13:37:33;23.10;99.90
4615;DHT22;2320;51.362;6.946;2023-06-22T13:39:58;23.10;99.90
4615;DHT22;2320;51.362;6.946;2023-06-22T13:42:25;23.10;99.90
4615;DHT22;2320;51.362;6.946;2023-06-22T13:44:50;23.10;99.90
4615;DHT22;2320;51.362;6.946;2023-06-22T13:47:16;22.90;99.90
4615;DHT22;2320;51.362;6.946;2023-06-22T13:49:41;22.90;99.90
4615;DHT22;2320;51.362;6.946;2023-06-22T13:52:07;23.10;99.90
4615;DHT22;2320;51.362;6.946;2023-06-22T13:54:35;23.40;99.90
4615;DHT22;2320;51.362;6.946;2023-06-22T13:57:02;23.30;99.90
4615;DHT22;2320;51.362;6.946;2023-06-22T13:59:27;23.20;99.90
4615;DHT22;2320;51.362;6.946;2023-06-22T14:01:53;23.30;99.90
4615;DHT22;2320;51.362;6.946;2023-06-22T14:04:19;23.30;99.90
4615;DHT22;2320;51.362;6.946;2023-06-22T14:06:44;23.20;99.90
4615;DHT22;2320;51.362;6.946;2023-06-22T14:09:09;23.20;99.90
4615;DHT22;2320;51.362;6.946;2023-06-22T14:11:35;23.20;99.90
4615;DHT22;2320;51.362;6.946;2023-06-22T14:14:00;23.10;99.90
4615;DHT22;2320;51.362;6.946;2023-06-22T14:16:26;23.10;99.90
4615;DHT22;2320;51.362;6.946;2023-06-22T14:18:51;23.20;99.90
4615;DHT22;2320;51.362;6.946;2023-06-22T14:21:17;23.30;99.90
4615;DHT22;2320;51.362;6.946;2023-06-22T14:23:42;23.30;99.90
4615;DHT22;2320;51.362;6.946;2023-06-22T14:26:14;23.20;99.90
4615;DHT22;2320;51.362;6.946;2023-06-22T14:28:40;23.20;99.90
4615;DHT22;2320;51.362;6.946;2023-06-22T14:31:05;23.40;99.90
4615;DHT22;2320;51.362;6.946;2023-06-22T14:33:30;23.30;99.90
4615;DHT22;2320;51.362;6.946;2023-06-22T14:35:56;23.20;99.90
4615;DHT22;2320;51.362;6.946;2023-06-22T14:38:21;23.10;99.90
4615;DHT22;2320;51.362;6.946;2023-06-22T14:40:47;23.20;99.90
4615;DHT22;2320;51.362;6.946;2023-06-22T14:43:12;23.20;99.90
4615;DHT22;2320;51.362;6.946;2023-06-22T14:45:38;23.30;99.90
4615;DHT22;2320;51.362;6.946;2023-06-22T14:48:03;23.30;99.90
4615;DHT22;2320;51.362;6.946;2023-06-22T14:50:29;23.30;99.90
4615;DHT22;2320;51.362;6.946;2023-06-22T14:52:54;23.00;99.90
4615;DHT22;2320;51.362;6.946;2023-06-22T14:55:20;23.00;99.90
4615;DHT22;2320;51.362;6.946;2023-06-22T14:57:45;23.30;99.90
4615;DHT22;2320;51.362;6.946;2023-06-22T15:00:11;23.20;99.90
4615;DHT22;2320;51.362;6.946;2023-06-22T15:02:36;22.90;99.90
4615;DHT22;2320;51.362;6.946;2023-06-22T15:05:02;22.80;99.90
4615;DHT22;2320;51.362;6.946;2023-06-22T15:07:27;22.70;99.90
4615;DHT22;2320;51.362;6.946;2023-06-22T15:09:53;22.50;99.90
4615;DHT22;2320;51.362;6.946;2023-06-22T15:12:18;22.30;99.90
4615;DHT22;2320;51.362;6.946;2023-06-22T15:14:44;22.30;99.90
4615;DHT22;2320;51.362;6.946;2023-06-22T15:17:09;22.30;99.90
4615;DHT22;2320;51.362;6.946;2023-06-22T15:19:35;22.20;99.90
4615;DHT22;2320;51.362;6.946;2023-06-22T15:22:03;22.30;99.90
4615;DHT22;2320;51.362;6.946;2023-06-22T15:24:28;22.30;99.90
4615;DHT22;2320;51.362;6.946;2023-06-22T15:26:54;22.30;99.90
4615;DHT22;2320;51.362;6.946;2023-06-22T15:29:20;22.40;99.90
4615;DHT22;2320;51.362;6.946;2023-06-22T15:31:45;22.30;99.90
4615;DHT22;2320;51.362;6.946;2023-06-22T15:34:12;22.50;99.90
4615;DHT22;2320;51.362;6.946;2023-06-22T15:36:38;22.60;99.90
4615;DHT22;2320;51.362;6.946;2023-06-22T15:39:03;22.50;99.90
4615;DHT22;2320;51.362;6.946;2023-06-22T15:41:29;22.60;99.90
4615;DHT22;2320;51.362;6.946;2023-06-22T15:43:54;22.50;99.90
4615;DHT22;2320;51.362;6.946;2023-06-22T15:46:20;22.30;99.90
4615;DHT22;2320;51.362;6.946;2023-06-22T15:48:46;22.30;99.90
4615;DHT22;2320;51.362;6.946;2023-06-22T15:51:12;22.10;99.90
4615;DHT22;2320;51.362;6.946;2023-06-22T15:53:38;22.00;99.90
4615;DHT22;2320;51.362;6.946;2023-06-22T15:56:03;21.80;99.90
4615;DHT22;2320;51.362;6.946;2023-06-22T15:58:29;21.70;99.90
4615;DHT22;2320;51.362;6.946;2023-06-22T16:00:55;21.50;99.90
4615;DHT22;2320;51.362;6.946;2023-06-22T16:03:21;21.60;99.90